Time;durP1;ratioP1;P1;durP2;ratioP2;P2;SDS_P1;SDS_P2;PMS_P1;PMS_P2;Temp;Humidity;BMP_temperature;BMP_pressure;BME280_temperature;BME280_humidity;BME280_pressure;Samples;Min_cycle;Max_cycle;Signal;HPM_P1;HPM_P2
2023/06/07 00:00:00;;;;;;;2.30;2.10;;;;;;;17.78;74.92;64839.94;5090830;28;20231;-58
2023/06/07 00:02:27;;;;;;;2.75;2.13;;;;;;;17.59;75.31;64822.09;5090811;28;20196;-58
2023/06/07 00:04:53;;;;;;;4.18;2.25;;;;;;;17.71;76.66;64830.22;5090971;28;20229;-56
2023/06/07 00:07:18;;;;;;;2.75;1.95;;;;;;;17.48;76.71;64805.41;5090803;28;20653;-57
2023/06/07 00:09:44;;;;;;;4.22;2.38;;;;;;;17.46;77.38;64803.22;5090601;28;20623;-57
2023/06/07 00:12:10;;;;;;;4.50;2.55;;;;;;;17.37;77.37;64792.75;5090729;28;20704;-58
2023/06/07 00:14:36;;;;;;;6.68;2.47;;;;;;;17.54;75.91;64814.03;5090509;28;20211;-58
2023/06/07 00:17:02;;;;;;;4.30;2.20;;;;;;;17.37;77.03;64792.75;5090691;28;20200;-59
2023/06/07 00:19:29;;;;;;;2.92;2.47;;;;;;;17.40;75.73;64799.16;5090713;28;20639;-60
2023/06/07 00:21:57;;;;;;;3.33;2.20;;;;;;;17.31;77.00;64789.22;5090497;28;20208;-60
2023/06/07 00:24:22;;;;;;;3.22;2.58;;;;;;;17.42;77.23;64798.25;5090881;28;20693;-58
2023/06/07 00:26:48;;;;;;;5.57;2.30;;;;;;;17.42;74.09;64800.78;5090495;28;20211;-58
2023/06/07 00:29:15;;;;;;;6.65;2.50;;;;;;;17.32;73.88;64790.31;5090620;28;20242;-58
2023/06/07 00:31:40;;;;;;;4.05;2.63;;;;;;;17.31;74.93;64788.69;5090379;28;20265;-58
2023/06/07 00:34:06;;;;;;;3.90;2.60;;;;;;;17.29;73.67;64786.47;5072449;28;20212;-59
2023/06/07 00:36:33;;;;;;;3.50;2.40;;;;;;;17.30;70.58;64790.13;5090533;28;20253;-60
2023/06/07 00:38:58;;;;;;;4.45;2.03;;;;;;;17.11;70.31;64767.19;5090435;28;20246;-58
2023/06/07 00:41:24;;;;;;;3.88;2.22;;;;;;;17.12;70.09;64768.28;5090404;28;20227;-58
2023/06/07 00:43:49;;;;;;;2.97;1.92;;;;;;;17.13;68.89;64768.84;5090082;28;20302;-57
2023/06/07 00:46:20;;;;;;;4.68;2.10;;;;;;;17.07;69.07;64762.25;5090227;28;20217;-58
2023/06/07 00:48:47;;;;;;;4.72;2.08;;;;;;;16.94;70.10;64748.47;5090088;28;20273;-57
2023/06/07 00:51:12;;;;;;;2.97;2.30;;;;;;;16.98;69.82;64754.88;5093157;28;20200;-58
2023/06/07 00:53:38;;;;;;;4.90;2.20;;;;;;;17.00;69.46;64751.97;5093960;28;20208;-59
2023/06/07 00:56:11;;;;;;;2.03;1.55;;;;;;;16.98;67.56;64752.31;5093658;28;20176;-59
2023/06/07 00:58:40;;;;;;;3.60;2.10;;;;;;;16.85;68.12;64740.56;5093855;28;20280;-60
2023/06/07 01:01:05;;;;;;;4.53;2.33;;;;;;;16.87;68.64;64740.75;5093767;28;20204;-60
2023/06/07 01:03:34;;;;;;;4.65;2.25;;;;;;;16.88;69.09;64741.84;5093432;28;20369;-58
2023/06/07 01:06:02;;;;;;;2.40;1.83;;;;;;;16.88;68.53;64741.31;5093570;28;20204;-59
2023/06/07 01:08:32;;;;;;;5.00;2.55;;;;;;;16.81;68.59;64734.13;5093720;28;20307;-60
2023/06/07 01:10:59;;;;;;;3.65;1.98;;;;;;;16.89;68.02;64742.94;5093632;28;20203;-61
2023/06/07 01:13:25;;;;;;;1.85;1.63;;;;;;;16.84;68.16;64739.44;5093721;28;20220;-59
2023/06/07 01:15:51;;;;;;;5.25;2.17;;;;;;;16.77;70.55;64729.72;5093402;28;20195;-59
2023/06/07 01:18:18;;;;;;;5.43;2.38;;;;;;;16.79;71.93;64735.03;5093544;28;20220;-59
2023/06/07 01:20:48;;;;;;;4.22;2.45;;;;;;;16.83;71.15;64738.34;5093445;28;20708;-58
2023/06/07 01:23:15;;;;;;;3.38;2.50;;;;;;;16.93;74.08;64744.28;5093425;28;20212;-60
2023/06/07 01:25:41;;;;;;;5.18;2.15;;;;;;;16.66;75.55;64718.16;5093187;28;20692;-59
2023/06/07 01:28:07;;;;;;;5.07;2.53;;;;;;;16.73;76.50;64723.34;5093158;28;20220;-60
2023/06/07 01:30:33;;;;;;;2.70;2.40;;;;;;;16.61;75.93;64715.22;5092220;28;20192;-60
2023/06/07 01:33:02;;;;;;;4.13;2.55;;;;;;;16.58;77.19;64709.34;5091147;28;20658;-60
2023/06/07 01:35:29;;;;;;;4.05;2.33;;;;;;;16.61;77.15;64712.13;5091400;28;20200;-61
2023/06/07 01:37:55;;;;;;;10.13;2.60;;;;;;;16.64;76.62;64715.44;5091428;28;20675;-60
2023/06/07 01:40:23;;;;;;;3.08;2.70;;;;;;;16.62;76.16;64713.22;5092430;28;20286;-59
2023/06/07 01:42:50;;;;;;;3.42;2.88;;;;;;;16.40;76.50;64692.06;5093165;28;20208;-60
2023/06/07 01:45:16;;;;;;;3.78;3.28;;;;;;;16.43;77.93;64692.28;5092151;28;20286;-60
2023/06/07 01:47:41;;;;;;;4.07;3.67;;;;;;;16.37;76.27;64688.78;5092948;28;20694;-59
2023/06/07 01:50:08;;;;;;;5.43;3.55;;;;;;;16.52;75.07;64700.22;5092823;28;20577;-60
2023/06/07 01:52:34;;;;;;;6.45;3.10;;;;;;;16.34;76.10;64688.00;5092820;28;20200;-60
2023/06/07 01:55:01;;;;;;;4.22;2.60;;;;;;;16.28;76.24;64675.78;5092803;28;20612;-60
2023/06/07 01:57:34;;;;;;;3.75;2.72;;;;;;;16.27;75.53;64674.66;5092839;28;20199;-60
2023/06/07 02:00:05;;;;;;;5.80;2.78;;;;;;;16.43;75.54;64695.38;5092560;28;20223;-58
2023/06/07 02:02:31;;;;;;;7.53;2.53;;;;;;;16.51;75.48;64699.13;5092633;28;20204;-60
2023/06/07 02:05:01;;;;;;;3.38;2.42;;;;;;;16.40;76.52;64692.06;5092709;28;20579;-60
2023/06/07 02:07:29;;;;;;;3.67;2.47;;;;;;;16.30;76.74;64675.44;5092765;28;20273;-60
2023/06/07 02:09:57;;;;;;;4.53;2.22;;;;;;;16.21;77.29;64668.63;5092359;28;20212;-59
2023/06/07 02:12:23;;;;;;;3.90;2.25;;;;;;;16.21;77.19;64666.06;5092673;28;20260;-61
2023/06/07 02:14:52;;;;;;;5.43;2.28;;;;;;;16.17;76.91;64664.22;5092519;28;20275;-61
2023/06/07 02:17:19;;;;;;;2.83;2.13;;;;;;;16.16;77.37;64663.09;5092620;28;20341;-59
2023/06/07 02:19:45;;;;;;;2.90;2.22;;;;;;;16.23;77.07;64672.81;5092685;28;20212;-60
2023/06/07 02:22:12;;;;;;;5.43;3.10;;;;;;;16.10;77.89;64655.97;5092397;28;20227;-60
2023/06/07 02:24:38;;;;;;;6.35;2.17;;;;;;;16.31;78.00;64681.63;5092304;28;20216;-60
2023/06/07 02:27:04;;;;;;;3.72;2.22;;;;;;;16.21;78.53;64668.63;5092469;28;20583;-59
2023/06/07 02:29:29;;;;;;;6.13;2.53;;;;;;;16.21;78.68;64668.06;5092420;28;20658;-60
2023/06/07 02:31:57;;;;;;;4.32;2.63;;;;;;;15.99;78.46;64644.41;5074097;28;20203;-60
2023/06/07 02:34:24;;;;;;;5.13;2.55;;;;;;;16.15;77.56;64664.56;5092184;28;20215;-59
2023/06/07 02:36:50;;;;;;;4.60;2.30;;;;;;;16.23;77.56;64667.72;5092211;28;20682;-60
2023/06/07 02:39:16;;;;;;;6.03;2.50;;;;;;;16.21;78.54;64668.06;5092635;28;20257;-60
2023/06/07 02:41:41;;;;;;;3.28;2.20;;;;;;;16.20;78.30;64669.50;5092091;28;20223;-60
2023/06/07 02:44:06;;;;;;;3.70;2.40;;;;;;;16.19;76.93;64666.41;5092294;28;20251;-60
2023/06/07 02:46:32;;;;;;;8.65;2.15;;;;;;;16.09;78.57;64657.41;5092291;28;20217;-60
2023/06/07 02:48:57;;;;;;;4.05;2.25;;;;;;;16.00;78.75;64648.03;5092137;28;20654;-61
2023/06/07 02:51:22;;;;;;;2.15;1.95;;;;;;;15.91;80.15;64638.16;5091944;28;20257;-60
2023/06/07 02:53:49;;;;;;;3.08;2.42;;;;;;;16.01;78.87;64649.16;5092035;28;20216;-60
2023/06/07 02:56:14;;;;;;;5.18;2.33;;;;;;;16.15;79.44;64661.47;5091891;28;20213;-61
2023/06/07 02:58:40;;;;;;;9.85;2.28;;;;;;;16.03;79.79;64651.34;5091865;28;20310;-60
2023/06/07 03:01:07;;;;;;;3.03;2.22;;;;;;;15.82;80.27;64625.69;5091963;28;20730;-60
2023/06/07 03:03:37;;;;;;;6.05;2.20;;;;;;;16.08;78.46;64656.31;5091973;28;20216;-60
2023/06/07 03:06:07;;;;;;;4.05;2.38;;;;;;;16.01;79.88;64644.06;5091821;28;20283;-57
2023/06/07 03:08:33;;;;;;;3.65;2.20;;;;;;;15.98;79.90;64643.28;5092085;28;20302;-57
2023/06/07 03:10:59;;;;;;;2.60;2.40;;;;;;;15.96;78.79;64641.66;5073336;28;20196;-57
2023/06/07 03:13:25;;;;;;;7.35;2.83;;;;;;;16.07;79.30;64650.13;5090506;28;20212;-56
2023/06/07 03:15:50;;;;;;;5.13;2.28;;;;;;;16.09;78.96;64654.84;5091564;28;20203;-57
2023/06/07 03:18:17;;;;;;;6.35;2.67;;;;;;;15.86;79.04;64628.09;5091460;28;20265;-56
2023/06/07 03:20:43;;;;;;;6.95;3.40;;;;;;;15.86;79.42;64632.63;5091566;28;20200;-57
2023/06/07 03:23:09;;;;;;;5.50;3.30;;;;;;;15.78;79.73;64624.38;5073253;28;20220;-57
2023/06/07 03:25:35;;;;;;;5.03;2.42;;;;;;;16.02;78.92;64647.16;5091442;28;20211;-57
2023/06/07 03:28:01;;;;;;;4.72;2.67;;;;;;;15.82;78.98;64628.22;5091429;28;20204;-56
2023/06/07 03:30:26;;;;;;;5.63;2.88;;;;;;;16.10;78.72;64658.50;5091381;28;20200;-56
2023/06/07 03:32:52;;;;;;;4.68;2.42;;;;;;;16.14;77.83;64660.91;5091380;28;20199;-57
2023/06/07 03:35:18;;;;;;;4.35;2.40;;;;;;;16.00;78.49;64645.50;5091362;28;20689;-57
2023/06/07 03:37:43;;;;;;;11.70;5.90;;;;;;;15.85;79.38;64626.47;5091370;28;20211;-56
2023/06/07 03:40:10;;;;;;;10.50;5.63;;;;;;;15.78;79.71;64621.28;5091127;28;20291;-57
2023/06/07 03:42:35;;;;;;;3.75;2.90;;;;;;;15.79;79.46;64622.97;5091275;28;20191;-56
2023/06/07 03:45:00;;;;;;;5.97;3.33;;;;;;;15.86;79.53;64630.66;5091071;28;20693;-56
2023/06/07 03:47:26;;;;;;;6.07;3.20;;;;;;;15.89;79.97;64636.50;5091306;28;20196;-56
2023/06/07 03:49:51;;;;;;;4.88;3.30;;;;;;;16.08;79.58;64656.84;5090863;28;20290;-56
2023/06/07 03:52:17;;;;;;;4.15;2.47;;;;;;;16.06;79.11;64652.09;5090973;28;20204;-57
2023/06/07 03:54:42;;;;;;;5.10;3.30;;;;;;;15.88;80.17;64632.28;5090972;28;20203;-56
2023/06/07 03:57:07;;;;;;;6.78;2.55;;;;;;;15.81;80.46;64627.69;5090883;28;20677;-57
2023/06/07 03:59:33;;;;;;;7.80;2.90;;;;;;;15.90;80.28;64632.50;5090950;28;20724;-57
2023/06/07 04:02:00;;;;;;;5.13;2.80;;;;;;;15.87;80.30;64631.75;5090811;28;20192;-57
2023/06/07 04:04:29;;;;;;;8.95;3.65;;;;;;;16.20;80.35;64670.06;5090764;28;20239;-57
2023/06/07 04:06:54;;;;;;;4.30;3.20;;;;;;;16.09;80.18;64655.41;5090801;28;20200;-56
2023/06/07 04:09:20;;;;;;;5.05;2.83;;;;;;;16.05;80.43;64650.44;5091259;28;20612;-56
2023/06/07 04:11:46;;;;;;;6.13;3.10;;;;;;;16.11;80.17;64657.06;5090560;28;20200;-57
2023/06/07 04:14:12;;;;;;;3.78;2.70;;;;;;;16.12;81.08;64658.69;5091134;28;20219;-56
2023/06/07 04:16:38;;;;;;;7.13;3.00;;;;;;;16.45;79.89;64692.50;5072566;28;20639;-57
2023/06/07 04:19:03;;;;;;;5.07;2.78;;;;;;;16.47;80.17;64697.25;5090912;28;20262;-57
2023/06/07 04:21:28;;;;;;;4.13;2.25;;;;;;;16.46;79.21;64698.66;5090667;28;20220;-57
2023/06/07 04:23:54;;;;;;;4.57;2.50;;;;;;;16.47;80.69;64697.25;5090493;28;20767;-57
2023/06/07 04:26:21;;;;;;;9.27;3.00;;;;;;;16.44;81.81;64693.94;5090569;28;20662;-57
2023/06/07 04:28:49;;;;;;;4.20;2.53;;;;;;;16.55;81.44;64703.53;5090601;28;20250;-56
2023/06/07 04:31:15;;;;;;;4.90;2.25;;;;;;;16.69;80.89;64724.03;5090625;28;20203;-57
2023/06/07 04:33:45;;;;;;;5.10;2.63;;;;;;;16.74;81.34;64727.00;5090811;28;20232;-56
2023/06/07 04:36:11;;;;;;;9.05;2.70;;;;;;;16.65;81.07;64717.06;5072270;28;20200;-57
2023/06/07 04:38:37;;;;;;;4.90;2.58;;;;;;;16.47;81.46;64699.22;5090663;28;20219;-57
2023/06/07 04:41:05;;;;;;;4.68;2.33;;;;;;;16.56;81.15;64707.16;5090196;28;20295;-58
2023/06/07 04:43:36;;;;;;;5.95;2.70;;;;;;;16.66;81.44;64715.63;5090601;28;20320;-56
2023/06/07 04:46:02;;;;;;;7.78;3.08;;;;;;;17.08;100.00;64763.88;5072541;28;20364;-57
2023/06/07 04:48:28;;;;;;;5.30;2.72;;;;;;;18.46;100.00;64914.94;5090334;28;20219;-56
2023/06/07 04:50:54;;;;;;;4.15;2.75;;;;;;;19.29;97.90;65005.97;5090170;28;20211;-61
2023/06/07 04:53:20;;;;;;;5.95;2.70;;;;;;;19.02;85.22;64976.75;5090134;28;20207;-60
2023/06/07 04:55:47;;;;;;;8.60;2.90;;;;;;;19.26;89.28;65000.13;5090440;28;20223;-56
2023/06/07 04:58:16;;;;;;;5.60;2.90;;;;;;;19.24;84.79;65003.00;5090305;28;20223;-57
2023/06/07 05:00:42;;;;;;;3.63;2.80;;;;;;;19.25;83.12;65002.09;5090231;28;20204;-57
2023/06/07 05:03:08;;;;;;;4.82;2.58;;;;;;;19.40;83.36;65012.47;5090315;28;20215;-60
2023/06/07 05:05:34;;;;;;;6.43;2.85;;;;;;;19.48;81.34;65024.41;5090110;28;20195;-61
2023/06/07 05:08:04;;;;;;;7.30;3.05;;;;;;;19.50;80.24;65026.06;5090054;28;20242;-64
2023/06/07 05:10:30;;;;;;;7.05;2.95;;;;;;;19.57;81.69;65033.81;5090176;28;20172;-60
2023/06/07 05:12:55;;;;;;;11.60;3.60;;;;;;;19.65;71.75;65045.75;5090098;28;20287;-57
2023/06/07 05:15:24;;;;;;;5.53;3.28;;;;;;;19.14;74.35;64989.41;5090238;28;20216;-56
2023/06/07 05:17:50;;;;;;;4.10;3.13;;;;;;;18.87;75.12;64957.63;5071687;28;20211;-56
2023/06/07 05:20:17;;;;;;;4.15;2.78;;;;;;;18.53;77.50;64919.56;5090143;28;20287;-57
2023/06/07 05:22:43;;;;;;;4.22;3.33;;;;;;;18.28;81.27;64893.06;5089673;28;20265;-58
2023/06/07 05:25:11;;;;;;;11.70;4.40;;;;;;;18.45;78.38;64911.28;5089816;28;20250;-57
2023/06/07 05:27:38;;;;;;;6.53;3.65;;;;;;;18.26;77.14;64893.41;5089872;28;20674;-56
2023/06/07 05:30:07;;;;;;;5.70;2.72;;;;;;;18.21;80.53;64889.91;5089688;28;20212;-57
2023/06/07 05:32:34;;;;;;;4.35;2.80;;;;;;;18.08;79.51;64873.56;5071651;28;20213;-57
2023/06/07 05:35:01;;;;;;;10.00;3.95;;;;;;;18.20;78.45;64884.25;5071777;28;20706;-57
2023/06/07 05:37:28;;;;;;;4.35;2.95;;;;;;;18.10;79.28;64873.22;5090748;28;20183;-57
2023/06/07 05:39:54;;;;;;;7.82;3.17;;;;;;;18.17;80.71;64882.94;5092608;28;20216;-60
2023/06/07 05:42:19;;;;;;;6.13;3.20;;;;;;;18.17;80.42;64880.94;5093057;28;20204;-63
2023/06/07 05:44:46;;;;;;;5.20;2.65;;;;;;;18.12;80.51;64880.00;5091337;28;20596;-61
2023/06/07 05:47:12;;;;;;;3.63;2.65;;;;;;;18.07;80.65;64874.47;5090877;28;20865;-61
2023/06/07 05:49:37;;;;;;;6.15;3.50;;;;;;;18.19;80.87;64885.16;5091136;28;20823;-61
2023/06/07 05:52:03;;;;;;;4.80;3.20;;;;;;;18.01;83.43;64865.84;5092264;28;20286;-61
2023/06/07 05:54:28;;;;;;;7.55;3.03;;;;;;;18.27;78.76;64894.53;5073388;28;20211;-61
2023/06/07 05:56:53;;;;;;;6.68;3.35;;;;;;;18.56;78.13;64925.44;5093086;28;20196;-57
2023/06/07 05:59:19;;;;;;;7.28;3.35;;;;;;;18.43;81.44;64912.19;5057836;28;20300;-59
2023/06/07 06:01:46;;;;;;;4.68;2.67;;;;;;;18.46;76.83;64914.41;5092717;28;20223;-59
2023/06/07 06:04:12;;;;;;;4.95;2.22;;;;;;;18.52;76.82;64918.47;5093083;28;20220;-56
2023/06/07 06:06:38;;;;;;;5.95;2.45;;;;;;;18.36;77.78;64904.44;5092937;28;20249;-57
2023/06/07 06:09:04;;;;;;;5.15;2.38;;;;;;;18.61;74.42;64928.94;5108919;22;20231;-57
2023/06/07 06:11:30;;;;;;;8.40;3.08;;;;;;;18.87;84.10;64959.63;5113028;28;20211;-56
2023/06/07 06:13:56;;;;;;;6.35;3.28;;;;;;;19.89;94.26;65069.69;5112687;28;20277;-58
2023/06/07 06:16:21;;;;;;;5.35;3.03;;;;;;;20.04;71.59;65091.38;5112930;28;20201;-59
2023/06/07 06:18:46;;;;;;;7.47;2.95;;;;;;;20.17;73.27;65102.06;5112803;28;20211;-58
2023/06/07 06:21:12;;;;;;;6.72;3.50;;;;;;;20.66;84.20;65156.25;5112955;28;20256;-57
2023/06/07 06:23:38;;;;;;;6.85;3.17;;;;;;;21.46;79.84;65242.16;5112686;28;20214;-56
2023/06/07 06:26:04;;;;;;;5.40;3.15;;;;;;;21.57;66.45;65256.34;5112813;28;20687;-58
2023/06/07 06:28:29;;;;;;;4.18;2.75;;;;;;;21.43;69.03;65238.84;5094649;28;20251;-57
2023/06/07 06:30:55;;;;;;;9.70;3.72;;;;;;;21.49;77.09;65245.47;5112526;28;20230;-57
2023/06/07 06:33:20;;;;;;;8.13;4.03;;;;;;;21.93;74.91;65296.19;5112601;28;20210;-58
2023/06/07 06:35:47;;;;;;;7.03;3.53;;;;;;;21.98;70.40;65296.59;5112547;28;20210;-57
2023/06/07 06:38:12;;;;;;;10.00;3.40;;;;;;;21.97;67.30;65294.94;5112350;28;20268;-58
2023/06/07 06:40:38;;;;;;;2.63;2.40;;;;;;;21.47;64.83;65243.25;5112468;28;20195;-57
2023/06/07 06:43:03;;;;;;;6.32;2.60;;;;;;;21.64;68.37;65259.50;5112692;28;20204;-63
2023/06/07 06:45:29;;;;;;;4.93;2.75;;;;;;;21.57;67.04;65253.78;5112601;28;20203;-63
2023/06/07 06:47:55;;;;;;;6.80;3.20;;;;;;;21.37;68.60;65232.19;5112522;28;20246;-61
2023/06/07 06:50:20;;;;;;;5.57;3.75;;;;;;;21.48;69.60;65241.81;5112437;28;20643;-62
2023/06/07 06:52:46;;;;;;;4.13;2.53;;;;;;;21.00;66.82;65188.72;5112478;28;20669;-61
2023/06/07 06:55:18;;;;;;;3.47;2.53;;;;;;;20.71;67.72;65159.22;5112380;28;20215;-57
2023/06/07 06:57:43;;;;;;;5.28;3.35;;;;;;;20.88;66.95;65178.00;5112488;28;20287;-58
2023/06/07 07:00:10;;;;;;;6.10;3.38;;;;;;;20.84;71.02;65173.59;5093743;28;20299;-60
2023/06/07 07:02:35;;;;;;;7.20;3.20;;;;;;;21.32;70.29;65231.25;5111986;28;20178;-60
2023/06/07 07:05:03;;;;;;;6.07;3.10;;;;;;;21.77;69.78;65275.34;5112058;28;20215;-59
2023/06/07 07:07:29;;;;;;;7.25;3.00;;;;;;;21.93;63.29;65290.50;5112250;28;20195;-58
2023/06/07 07:09:55;;;;;;;7.07;3.30;;;;;;;21.77;67.30;65275.91;5112121;28;20212;-59
2023/06/07 07:12:21;;;;;;;6.95;3.00;;;;;;;21.38;68.72;65232.75;5111956;28;20197;-60
2023/06/07 07:14:47;;;;;;;6.63;3.15;;;;;;;21.68;69.18;65269.06;5111915;28;20240;-60
2023/06/07 07:17:12;;;;;;;6.25;2.83;;;;;;;22.09;69.00;65310.78;5112197;28;20192;-59
2023/06/07 07:19:38;;;;;;;7.70;3.05;;;;;;;22.31;66.02;65337.69;5112011;28;20677;-59
2023/06/07 07:22:04;;;;;;;5.95;3.03;;;;;;;22.61;65.33;65367.78;5112000;28;20621;-59
2023/06/07 07:24:30;;;;;;;6.82;3.70;;;;;;;22.63;65.93;65367.44;5111762;28;20218;-60
2023/06/07 07:26:56;;;;;;;6.82;2.78;;;;;;;22.22;61.14;65325.16;5111959;28;20199;-59
2023/06/07 07:29:21;;;;;;;5.07;3.03;;;;;;;21.57;65.59;65253.78;5112083;28;20325;-60
2023/06/07 07:31:47;;;;;;;3.60;2.63;;;;;;;21.86;68.06;65287.88;5093466;28;20172;-59
2023/06/07 07:34:19;;;;;;;6.43;3.10;;;;;;;22.13;67.59;65318.31;5112111;28;20216;-61
2023/06/07 07:36:45;;;;;;;5.63;2.83;;;;;;;22.40;66.41;65345.63;5093343;28;20212;-59
2023/06/07 07:39:11;;;;;;;5.68;3.00;;;;;;;22.45;62.02;65353.75;5111692;28;20757;-60
2023/06/07 07:41:37;;;;;;;5.90;3.47;;;;;;;22.60;63.25;65366.69;5111845;28;20233;-59
2023/06/07 07:44:03;;;;;;;8.18;3.17;;;;;;;22.33;61.58;65337.91;5111551;28;20210;-59
2023/06/07 07:46:28;;;;;;;4.45;2.75;;;;;;;22.07;60.59;65309.13;5111311;28;20203;-59
2023/06/07 07:48:53;;;;;;;6.40;3.10;;;;;;;21.75;67.01;65271.66;5111169;28;20211;-59
2023/06/07 07:51:19;;;;;;;5.45;2.60;;;;;;;22.12;66.08;65314.66;5111447;28;20191;-59
2023/06/07 07:53:45;;;;;;;6.05;3.03;;;;;;;22.41;65.34;65346.75;5111647;28;20553;-60
2023/06/07 07:56:11;;;;;;;3.40;2.53;;;;;;;22.35;62.06;65339.56;5111240;28;20241;-61
2023/06/07 07:58:36;;;;;;;7.18;2.55;;;;;;;22.07;62.88;65311.13;5110557;28;20322;-60
2023/06/07 08:01:03;;;;;;;7.53;3.38;;;;;;;21.79;64.78;65277.56;5111417;28;20179;-60
2023/06/07 08:03:29;;;;;;;5.47;3.25;;;;;;;21.89;66.74;65288.66;5111355;28;20230;-59
2023/06/07 08:05:55;;;;;;;3.50;2.17;;;;;;;21.89;63.79;65291.22;5111326;28;20195;-62
2023/06/07 08:08:21;;;;;;;5.80;2.80;;;;;;;22.18;66.73;65320.75;5111081;28;20235;-59
2023/06/07 08:10:47;;;;;;;3.92;2.78;;;;;;;22.41;66.45;65346.75;5076204;28;20626;-61
2023/06/07 08:13:14;;;;;;;6.10;3.13;;;;;;;22.58;65.08;65361.91;5111047;28;20215;-60
2023/06/07 08:15:40;;;;;;;5.18;3.28;;;;;;;22.76;65.87;65384.41;5111214;28;20191;-58
2023/06/07 08:18:06;;;;;;;5.88;3.05;;;;;;;23.03;65.42;65414.31;5111215;28;20195;-58
2023/06/07 08:20:32;;;;;;;3.60;2.67;;;;;;;22.96;64.63;65407.13;5110892;28;20673;-57
2023/06/07 08:22:57;;;;;;;6.35;2.85;;;;;;;23.26;63.77;65440.34;5111172;28;20195;-59
2023/06/07 08:25:23;;;;;;;6.60;3.08;;;;;;;23.19;59.09;65432.59;5110856;28;20195;-57
2023/06/07 08:27:49;;;;;;;7.10;3.78;;;;;;;23.19;63.93;65434.63;5092340;28;20207;-58
2023/06/07 08:30:14;;;;;;;6.63;2.95;;;;;;;23.38;63.83;65452.56;5111147;28;20207;-57
2023/06/07 08:32:40;;;;;;;4.00;3.00;;;;;;;23.65;62.43;65479.91;5110812;28;20227;-57
2023/06/07 08:35:07;;;;;;;4.95;2.92;;;;;;;23.71;59.85;65489.69;5110878;28;20700;-57
2023/06/07 08:37:33;;;;;;;7.65;3.05;;;;;;;23.60;61.15;65477.50;5110664;28;20222;-59
2023/06/07 08:39:59;;;;;;;5.53;2.97;;;;;;;23.74;61.89;65490.44;5110632;28;20203;-60
2023/06/07 08:42:25;;;;;;;6.47;3.40;;;;;;;23.88;62.31;65507.97;5110832;28;20199;-65
2023/06/07 08:44:50;;;;;;;11.45;3.45;;;;;;;23.77;63.13;65495.78;5110822;28;20727;-62
2023/06/07 08:47:17;;;;;;;4.93;3.08;;;;;;;23.76;61.97;65494.66;5110891;28;20187;-63
2023/06/07 08:49:44;;;;;;;6.65;3.25;;;;;;;23.67;62.06;65485.25;5110353;28;20214;-62
2023/06/07 08:52:10;;;;;;;4.85;3.22;;;;;;;23.57;63.99;65473.63;5110583;28;20199;-61
2023/06/07 08:54:42;;;;;;;4.63;3.10;;;;;;;23.73;63.52;65491.91;5110581;28;20215;-62
2023/06/07 08:57:16;;;;;;;5.03;3.25;;;;;;;23.84;59.84;65504.09;5110499;28;20195;-62
2023/06/07 08:59:46;;;;;;;6.10;2.95;;;;;;;23.82;63.00;65498.72;5110750;28;20250;-61
2023/06/07 09:02:15;;;;;;;5.85;3.40;;;;;;;23.74;62.07;65492.44;5110576;28;20195;-61
2023/06/07 09:04:43;;;;;;;5.13;3.20;;;;;;;23.73;64.33;65488.78;5110759;28;20203;-62
2023/06/07 09:07:11;;;;;;;3.85;2.80;;;;;;;23.81;62.84;65500.22;5110644;28;20200;-63
2023/06/07 09:09:40;;;;;;;3.53;2.65;;;;;;;23.99;61.88;65517.59;5110316;28;20265;-63
2023/06/07 09:12:06;;;;;;;6.75;3.08;;;;;;;23.98;60.63;65519.59;5113013;28;20241;-62
2023/06/07 09:14:32;;;;;;;5.85;4.28;;;;;;;23.88;62.66;65507.97;5114001;28;20748;-63
2023/06/07 09:16:59;;;;;;;8.70;4.57;;;;;;;23.96;62.07;65514.25;5114015;28;20288;-62
2023/06/07 09:19:35;;;;;;;8.35;4.50;;;;;;;23.98;63.61;65519.03;5113568;28;20252;-62
2023/06/07 09:22:04;;;;;;;5.07;2.53;;;;;;;24.08;59.19;65530.16;5114388;28;20218;-62
2023/06/07 09:24:31;;;;;;;5.28;4.00;;;;;;;24.07;59.28;65529.63;5114347;28;20727;-63
2023/06/07 09:26:58;;;;;;;3.70;3.08;;;;;;;23.96;58.93;65516.81;5113748;28;20689;-62
2023/06/07 09:29:27;;;;;;;4.65;3.20;;;;;;;23.88;60.15;65507.97;5114008;28;20219;-62
2023/06/07 09:31:54;;;;;;;8.88;3.67;;;;;;;23.63;60.67;65478.25;5113633;28;20661;-66
2023/06/07 09:34:21;;;;;;;5.85;2.72;;;;;;;23.55;59.73;65471.97;5113611;28;20211;-63
2023/06/07 09:36:51;;;;;;;6.38;3.78;;;;;;;23.48;60.89;65464.19;5095255;28;20649;-60
2023/06/07 09:39:30;;;;;;;5.55;2.92;;;;;;;23.66;63.05;65481.56;5113389;28;20207;-62
2023/06/07 09:41:57;;;;;;;4.75;3.15;;;;;;;23.86;63.40;65508.88;5113340;28;20218;-64
2023/06/07 09:44:22;;;;;;;6.10;3.25;;;;;;;23.92;61.33;65512.94;5113929;28;20218;-63
2023/06/07 09:46:48;;;;;;;6.80;3.25;;;;;;;24.06;61.39;65528.50;5113383;28;20188;-62
2023/06/07 09:49:22;;;;;;;13.13;3.53;;;;;;;24.14;62.14;65537.38;5113820;28;20222;-62
2023/06/07 09:51:49;;;;;;;4.57;3.33;;;;;;;24.24;63.04;65547.88;5113525;28;20218;-62
2023/06/07 09:54:15;;;;;;;6.07;3.50;;;;;;;24.23;62.93;65546.78;5113293;28;20211;-63
2023/06/07 09:56:40;;;;;;;3.83;2.88;;;;;;;24.24;62.05;65547.34;5113381;28;20236;-63
2023/06/07 09:59:06;;;;;;;6.10;3.22;;;;;;;23.93;60.34;65511.50;5113366;28;20219;-61
2023/06/07 10:01:34;;;;;;;4.75;3.20;;;;;;;24.24;63.57;65544.78;5113398;28;20210;-64
2023/06/07 10:04:02;;;;;;;5.93;3.20;;;;;;;24.32;58.00;65556.75;5112923;28;20219;-63
2023/06/07 10:06:30;;;;;;;3.65;2.92;;;;;;;24.13;60.80;65535.72;5112605;28;20202;-62
2023/06/07 10:08:59;;;;;;;3.30;3.00;;;;;;;24.24;59.59;65545.31;5112138;28;20224;-62
2023/06/07 10:11:36;;;;;;;7.45;3.40;;;;;;;24.20;59.32;65542.91;5112819;28;20200;-62
2023/06/07 10:14:09;;;;;;;6.70;3.33;;;;;;;23.94;55.77;65515.16;5113277;28;21127;-63
2023/06/07 10:16:36;;;;;;;8.80;3.60;;;;;;;23.72;59.69;65490.22;5113164;28;20199;-62
2023/06/07 10:19:17;;;;;;;4.20;2.67;;;;;;;23.71;56.25;65489.69;5112785;28;20226;-63
2023/06/07 10:21:49;;;;;;;5.93;3.00;;;;;;;23.64;57.67;65478.78;5094392;28;20348;-62
2023/06/07 10:24:24;;;;;;;4.50;3.13;;;;;;;23.66;58.50;65481.00;5112685;28;20211;-62
2023/06/07 10:26:55;;;;;;;4.90;2.47;;;;;;;23.84;56.39;65503.53;5112788;28;20336;-61
2023/06/07 10:30:16;;;;;;;7.22;3.03;;;;;;;23.89;59.08;65506.50;5112871;28;20260;-63
2023/06/07 10:32:44;;;;;;;7.32;2.90;;;;;;;23.71;60.35;65489.13;5010380;28;20237;-63
2023/06/07 10:35:11;;;;;;;5.72;2.70;;;;;;;23.99;57.02;65518.16;5093060;28;20222;-61
2023/06/07 10:37:37;;;;;;;7.50;3.70;;;;;;;24.10;59.94;65532.94;5112657;28;20215;-62
2023/06/07 10:40:14;;;;;;;4.30;2.85;;;;;;;23.89;59.23;65507.06;5112494;28;20706;-61
2023/06/07 10:42:43;;;;;;;4.78;3.70;;;;;;;24.10;57.57;65527.22;5112777;28;20294;-60
2023/06/07 10:45:15;;;;;;;3.63;2.72;;;;;;;24.18;55.67;65541.25;5112347;28;20200;-59
2023/06/07 10:47:42;;;;;;;4.88;2.95;;;;;;;24.13;55.31;65535.72;5094205;28;20192;-60
2023/06/07 10:50:08;;;;;;;4.43;2.63;;;;;;;24.04;56.92;65526.28;5112411;28;20238;-60
2023/06/07 10:52:33;;;;;;;3.38;2.63;;;;;;;24.07;55.84;65526.47;5112412;28;20246;-59
2023/06/07 10:54:59;;;;;;;4.47;2.85;;;;;;;24.06;54.10;65525.91;5112559;28;20245;-60
2023/06/07 10:57:36;;;;;;;6.90;3.17;;;;;;;24.06;57.60;65528.50;5112213;28;20606;-60
2023/06/07 11:00:30;;;;;;;5.22;3.38;;;;;;;23.92;57.17;65512.41;5112387;28;20245;-60
2023/06/07 11:03:05;;;;;;;5.72;2.95;;;;;;;24.21;57.83;65542.00;5112197;28;20226;-59
2023/06/07 11:05:52;;;;;;;3.63;2.85;;;;;;;24.26;60.15;65547.00;5112004;28;20239;-59
2023/06/07 11:08:37;;;;;;;3.25;2.83;;;;;;;24.47;56.04;65567.69;5112101;28;20294;-60
2023/06/07 11:11:04;;;;;;;6.43;2.83;;;;;;;24.46;56.94;65569.72;5112206;28;20219;-61
2023/06/07 11:13:39;;;;;;;10.57;3.05;;;;;;;24.57;52.88;65584.50;5112192;28;20207;-60
2023/06/07 11:16:22;;;;;;;5.35;3.00;;;;;;;24.61;53.00;65583.22;5111975;28;20697;-59
2023/06/07 11:19:04;;;;;;;5.07;2.80;;;;;;;24.71;56.49;65599.47;5093857;28;20215;-61
2023/06/07 11:21:57;;;;;;;5.53;2.70;;;;;;;24.81;58.62;65608.00;5112196;28;20207;-60
2023/06/07 11:24:24;;;;;;;4.13;2.78;;;;;;;24.89;56.96;65619.47;5112055;28;20219;-60
2023/06/07 11:26:50;;;;;;;6.90;2.90;;;;;;;25.19;57.50;65652.19;5093526;28;20206;-61
2023/06/07 11:29:19;;;;;;;3.97;2.60;;;;;;;25.22;55.36;65652.94;5111694;28;20212;-61
2023/06/07 11:31:46;;;;;;;7.78;6.05;;;;;;;25.16;55.96;65646.28;5111836;28;20274;-60
2023/06/07 11:34:14;;;;;;;7.90;4.78;;;;;;;25.21;55.39;65652.38;5110589;28;20199;-60